Time;durP1;ratioP1;P1;durP2;ratioP2;P2;SDS_P1;SDS_P2;PMS_P1;PMS_P2;Temp;Humidity;BMP_temperature;BMP_pressure;BME280_temperature;BME280_humidity;BME280_pressure;Samples;Min_cycle;Max_cycle;Signal;HPM_P1;HPM_P2
2023/04/30 00:00:29;;;;;;;;;;;;;;;14.30;nan;101979.06;5045273;28;19917;-82
2023/04/30 00:02:54;;;;;;;;;;;;;;;14.29;nan;101985.50;5050923;28;19927;-83
2023/04/30 00:05:19;;;;;;;;;;;;;;;14.25;nan;101985.19;5044407;28;19966;-83
2023/04/30 00:07:45;;;;;;;;;;;;;;;14.25;nan;101984.38;5041723;28;20004;-83
2023/04/30 00:10:10;;;;;;;;;;;;;;;14.27;nan;101993.03;5046311;28;21115;-83
2023/04/30 00:12:36;;;;;;;;;;;;;;;14.26;nan;102002.19;5047936;28;19917;-83
2023/04/30 00:15:02;;;;;;;;;;;;;;;14.15;nan;101996.59;5050159;28;19917;-83
2023/04/30 00:17:27;;;;;;;;;;;;;;;14.11;nan;101991.94;5046917;28;19949;-83
2023/04/30 00:19:52;;;;;;;;;;;;;;;14.07;nan;101994.28;5049849;28;20007;-83
2023/04/30 00:22:18;;;;;;;;;;;;;;;14.01;nan;102006.03;5043898;28;19918;-83
2023/04/30 00:24:43;;;;;;;;;;;;;;;13.97;nan;102004.03;5045743;28;19917;-83
2023/04/30 00:27:09;;;;;;;;;;;;;;;13.94;nan;102004.53;5045073;28;19936;-83
2023/04/30 00:29:34;;;;;;;;;;;;;;;13.92;nan;102004.78;5042848;28;19925;-82
2023/04/30 00:31:59;;;;;;;;;;;;;;;13.93;nan;102011.78;5050427;28;19919;-82
2023/04/30 00:34:25;;;;;;;;;;;;;;;13.90;nan;102005.00;5045513;28;19921;-83
2023/04/30 00:36:50;;;;;;;;;;;;;;;13.85;nan;102009.50;5041953;28;19980;-83
2023/04/30 00:39:16;;;;;;;;;;;;;;;13.81;nan;102005.63;5049992;28;20008;-82
2023/04/30 00:41:41;;;;;;;;;;;;;;;13.74;nan;102011.16;5045995;28;19979;-83
2023/04/30 00:44:07;;;;;;;;;;;;;;;13.67;nan;102007.78;5049505;28;19964;-83
2023/04/30 00:46:32;;;;;;;;;;;;;;;13.61;nan;102012.22;5034138;28;19928;-81
2023/04/30 00:49:01;;;;;;;;;;;;;;;13.54;nan;102011.53;5049198;28;19924;-81
2023/04/30 00:51:26;;;;;;;;;;;;;;;13.50;nan;102013.09;5048818;28;19929;-81
2023/04/30 00:53:52;;;;;;;;;;;;;;;13.49;nan;102014.13;5043129;28;19921;-81
2023/04/30 00:56:18;;;;;;;;;;;;;;;13.50;nan;102015.78;5047493;28;19916;-81
2023/04/30 00:58:44;;;;;;;;;;;;;;;13.49;nan;102022.22;5044313;28;20621;-82
2023/04/30 01:01:09;;;;;;;;;;;;;;;13.47;nan;102027.03;5045051;28;19942;-82
2023/04/30 01:03:35;;;;;;;;;;;;;;;13.46;nan;102030.75;5051235;28;20076;-82
2023/04/30 01:06:02;;;;;;;;;;;;;;;13.44;nan;102026.66;5048554;28;20016;-82
2023/04/30 01:08:27;;;;;;;;;;;;;;;13.38;nan;102027.59;5048919;28;19924;-82
2023/04/30 01:11:10;;;;;;;;;;;;;;;13.32;nan;102025.88;5045347;28;19916;-81
2023/04/30 01:13:42;;;;;;;;;;;;;;;13.26;nan;102031.09;5045015;28;20623;-81
2023/04/30 01:16:19;;;;;;;;;;;;;;;13.27;nan;102029.22;5047923;28;19944;-81
2023/04/30 01:18:56;;;;;;;;;;;;;;;13.26;nan;102030.28;5048928;28;20409;-82
2023/04/30 01:21:23;;;;;;;;;;;;;;;13.24;nan;102037.78;5049047;28;20015;-82
2023/04/30 01:24:07;;;;;;;;;;;;;;;13.17;nan;102029.00;5042108;28;19913;-82
2023/04/30 01:26:51;;;;;;;;;;;;;;;13.09;nan;102037.41;5048023;28;19978;-81
2023/04/30 01:29:17;;;;;;;;;;;;;;;13.05;nan;102038.91;5044972;28;19932;-82
2023/04/30 01:31:43;;;;;;;;;;;;;;;13.00;nan;102032.38;5044765;28;19917;-82
2023/04/30 01:34:09;;;;;;;;;;;;;;;12.95;nan;102040.31;5045535;28;20509;-82
2023/04/30 01:36:53;;;;;;;;;;;;;;;12.92;nan;102048.84;5047960;28;19963;-81
2023/04/30 01:39:19;;;;;;;;;;;;;;;12.93;nan;102053.19;5044902;28;19917;-82
2023/04/30 01:41:47;;;;;;;;;;;;;;;12.94;nan;102054.00;5042055;28;19917;-82
2023/04/30 01:44:13;;;;;;;;;;;;;;;12.93;nan;102047.00;5051103;28;19931;-81
2023/04/30 01:46:40;;;;;;;;;;;;;;;12.89;nan;102051.19;5045846;28;20055;-82
2023/04/30 01:49:14;;;;;;;;;;;;;;;12.83;nan;102055.63;5044364;28;19917;-81
2023/04/30 01:51:41;;;;;;;;;;;;;;;12.79;nan;102057.13;5042920;28;20007;-82
2023/04/30 01:54:15;;;;;;;;;;;;;;;12.80;nan;102058.78;5044681;28;19945;-82
2023/04/30 01:56:52;;;;;;;;;;;;;;;12.82;nan;102064.75;5032535;28;19916;-82
2023/04/30 01:59:18;;;;;;;;;;;;;;;12.80;nan;102058.78;5045236;28;19960;-82
2023/04/30 02:01:43;;;;;;;;;;;;;;;12.77;nan;102067.31;5045704;28;19956;-81
2023/04/30 02:04:09;;;;;;;;;;;;;;;12.74;nan;102058.84;5047981;28;19920;-82
2023/04/30 02:06:34;;;;;;;;;;;;;;;12.70;nan;102071.94;5050577;28;19921;-81
2023/04/30 02:09:05;;;;;;;;;;;;;;;12.68;nan;102074.06;5046456;28;19923;-81
2023/04/30 02:11:30;;;;;;;;;;;;;;;12.63;nan;102073.94;5041438;28;19924;-81
2023/04/30 02:13:55;;;;;;;;;;;;;;;12.61;nan;102074.16;5041273;28;19924;-81
2023/04/30 02:16:21;;;;;;;;;;;;;;;12.60;nan;102085.97;5043620;28;19917;-81
2023/04/30 02:18:46;;;;;;;;;;;;;;;12.60;nan;102087.84;5046199;28;20098;-81
2023/04/30 02:21:13;;;;;;;;;;;;;;;12.56;nan;102092.00;5041956;28;19917;-82
2023/04/30 02:23:38;;;;;;;;;;;;;;;12.53;nan;102097.84;5048887;28;20062;-81
2023/04/30 02:26:03;;;;;;;;;;;;;;;12.52;nan;102101.59;5045406;28;20000;-81
2023/04/30 02:28:29;;;;;;;;;;;;;;;12.49;nan;102104.72;5044133;28;19970;-81
2023/04/30 02:30:54;;;;;;;;;;;;;;;12.47;nan;102098.75;5046970;28;19924;-82
2023/04/30 02:33:20;;;;;;;;;;;;;;;12.46;nan;102107.88;5048781;28;19931;-82
2023/04/30 02:35:45;;;;;;;;;;;;;;;12.42;nan;102102.16;5043789;28;19921;-82
2023/04/30 02:38:10;;;;;;;;;;;;;;;12.42;nan;102106.69;5047532;28;19908;-81
2023/04/30 02:40:36;;;;;;;;;;;;;;;12.38;nan;102109.00;5049507;28;19917;-82
2023/04/30 02:43:01;;;;;;;;;;;;;;;12.32;nan;102116.09;5039047;28;19964;-82
2023/04/30 02:45:26;;;;;;;;;;;;;;;12.27;nan;102113.28;5045408;28;19925;-82
2023/04/30 02:47:52;;;;;;;;;;;;;;;12.23;nan;102120.16;5044277;28;19920;-82
2023/04/30 02:50:17;;;;;;;;;;;;;;;12.21;nan;102118.72;5046609;28;19920;-82
2023/04/30 02:52:43;;;;;;;;;;;;;;;12.19;nan;102126.19;5047263;28;20289;-82
2023/04/30 02:55:09;;;;;;;;;;;;;;;12.14;nan;102121.50;5046530;28;19920;-82
2023/04/30 02:57:34;;;;;;;;;;;;;;;12.07;nan;102128.81;5038526;28;19931;-82
2023/04/30 03:00:00;;;;;;;;;;;;;;;12.01;nan;102127.00;5046860;28;19932;-82
2023/04/30 03:02:25;;;;;;;;;;;;;;;11.96;nan;102126.88;5025013;28;19940;-82
2023/04/30 03:04:50;;;;;;;;;;;;;;;11.94;nan;102124.41;5043303;28;19917;-81
2023/04/30 03:07:16;;;;;;;;;;;;;;;11.92;nan;102123.81;5044583;28;19948;-81
2023/04/30 03:09:42;;;;;;;;;;;;;;;11.88;nan;102132.56;5042097;28;20282;-81
2023/04/30 03:12:07;;;;;;;;;;;;;;;11.84;nan;102134.03;5028252;28;20437;-81
2023/04/30 03:14:33;;;;;;;;;;;;;;;11.78;nan;102133.03;5043126;28;20000;-81
2023/04/30 03:16:58;;;;;;;;;;;;;;;11.72;nan;102126.69;5047851;28;20007;-81
2023/04/30 03:19:24;;;;;;;;;;;;;;;11.63;nan;102130.69;5044924;28;20429;-81
2023/04/30 03:21:50;;;;;;;;;;;;;;;11.58;nan;102129.72;5046607;28;20098;-82
2023/04/30 03:24:15;;;;;;;;;;;;;;;11.53;nan;102130.38;5044328;28;20487;-82
2023/04/30 03:26:41;;;;;;;;;;;;;;;11.47;nan;102125.88;5048498;28;19920;-82
2023/04/30 03:29:06;;;;;;;;;;;;;;;11.42;nan;102137.28;5043855;28;19912;-81
2023/04/30 03:31:32;;;;;;;;;;;;;;;11.36;nan;102135.47;5045081;28;20401;-82
2023/04/30 03:33:57;;;;;;;;;;;;;;;11.32;nan;102133.47;5043004;28;20371;-82
2023/04/30 03:36:22;;;;;;;;;;;;;;;11.28;nan;102135.75;5049830;28;19916;-82
2023/04/30 03:38:48;;;;;;;;;;;;;;;11.25;nan;102138.03;5042103;28;20892;-82
2023/04/30 03:41:13;;;;;;;;;;;;;;;11.18;nan;102146.97;5045454;28;19920;-81
2023/04/30 03:43:38;;;;;;;;;;;;;;;11.12;nan;102149.69;5044902;28;19921;-81
2023/04/30 03:46:04;;;;;;;;;;;;;;;11.06;nan;102150.56;5043805;28;19935;-82
2023/04/30 03:48:29;;;;;;;;;;;;;;;11.00;nan;102152.25;5043316;28;19925;-82
2023/04/30 03:50:54;;;;;;;;;;;;;;;10.98;nan;102156.19;5043133;28;19916;-81
2023/04/30 03:53:20;;;;;;;;;;;;;;;10.97;nan;102167.97;5042415;28;19953;-81
2023/04/30 03:55:45;;;;;;;;;;;;;;;10.95;nan;102164.66;5048611;28;19928;-81
2023/04/30 03:58:11;;;;;;;;;;;;;;;10.94;nan;102171.06;5041174;28;19921;-82
2023/04/30 04:00:36;;;;;;;;;;;;;;;10.91;nan;102166.94;5046976;28;19920;-81
2023/04/30 04:03:02;;;;;;;;;;;;;;;10.88;nan;102175.44;5046659;28;20314;-82
2023/04/30 04:05:28;;;;;;;;;;;;;;;10.88;nan;102178.13;5044868;28;20529;-81
2023/04/30 04:07:53;;;;;;;;;;;;;;;10.87;nan;102187.19;5048635;28;20148;-81
2023/04/30 04:10:18;;;;;;;;;;;;;;;10.86;nan;102185.56;5047605;28;19920;-82
2023/04/30 04:12:45;;;;;;;;;;;;;;;10.87;nan;102184.50;5046140;28;19917;-82
2023/04/30 04:15:10;;;;;;;;;;;;;;;10.89;nan;102196.66;5047449;28;19923;-81
2023/04/30 04:17:36;;;;;;;;;;;;;;;10.92;nan;102191.91;5042618;28;19920;-82
2023/04/30 04:20:01;;;;;;;;;;;;;;;10.94;nan;102187.16;5045811;28;19924;-82
2023/04/30 04:22:26;;;;;;;;;;;;;;;10.98;nan;102199.94;5046353;28;19921;-81
2023/04/30 04:24:53;;;;;;;;;;;;;;;11.03;nan;102194.75;5042038;28;20470;-82
2023/04/30 04:27:19;;;;;;;;;;;;;;;11.08;nan;102196.75;5041276;28;20051;-81
2023/04/30 04:29:45;;;;;;;;;;;;;;;11.12;nan;102198.78;5043414;28;20382;-81
2023/04/30 04:32:10;;;;;;;;;;;;;;;11.15;nan;102198.38;5046360;28;19924;-81
2023/04/30 04:34:37;;;;;;;;;;;;;;;11.20;nan;102203.91;5046594;28;19929;-81
2023/04/30 04:37:02;;;;;;;;;;;;;;;11.25;nan;102207.81;5046519;28;19952;-82
2023/04/30 04:39:27;;;;;;;;;;;;;;;11.31;nan;102206.94;5043573;28;19970;-82
2023/04/30 04:41:53;;;;;;;;;;;;;;;11.37;nan;102208.75;5040658;28;19917;-81
2023/04/30 04:44:19;;;;;;;;;;;;;;;11.45;nan;102211.16;5044252;28;19923;-81
2023/04/30 04:46:44;;;;;;;;;;;;;;;11.51;nan;102213.00;5045991;28;20501;-81
2023/04/30 04:49:09;;;;;;;;;;;;;;;11.59;nan;102222.63;5049983;28;19917;-82
2023/04/30 04:51:35;;;;;;;;;;;;;;;11.69;nan;102233.72;5050648;28;19974;-81
2023/04/30 04:54:01;;;;;;;;;;;;;;;11.77;nan;102238.78;5042319;28;19944;-81
2023/04/30 04:56:26;;;;;;;;;;;;;;;11.87;nan;102238.34;5049231;28;21712;-82
2023/04/30 04:58:51;;;;;;;;;;;;;;;11.95;nan;102233.50;5047580;28;19956;-82
2023/04/30 05:01:17;;;;;;;;;;;;;;;12.03;nan;102235.91;5047234;28;19921;-82
2023/04/30 05:03:42;;;;;;;;;;;;;;;12.14;nan;102246.97;5044736;28;19948;-81
2023/04/30 05:06:07;;;;;;;;;;;;;;;12.23;nan;102253.69;5049170;28;19921;-81
2023/04/30 05:08:33;;;;;;;;;;;;;;;12.32;nan;102255.84;5050317;28;19925;-82
2023/04/30 05:10:58;;;;;;;;;;;;;;;12.42;nan;102257.22;5051701;28;20017;-82
2023/04/30 05:13:23;;;;;;;;;;;;;;;12.52;nan;102265.56;5046006;28;20016;-82
2023/04/30 05:15:50;;;;;;;;;;;;;;;12.64;nan;102267.31;5048916;28;19917;-82
2023/04/30 05:18:15;;;;;;;;;;;;;;;12.71;nan;102264.53;5047535;28;19921;-82
2023/04/30 05:20:41;;;;;;;;;;;;;;;12.76;nan;102259.31;5045371;28;19971;-82
2023/04/30 05:23:07;;;;;;;;;;;;;;;12.86;nan;102269.53;5032990;28;19917;-82
2023/04/30 05:25:32;;;;;;;;;;;;;;;12.97;nan;102264.22;5049485;28;19917;-82
2023/04/30 05:27:57;;;;;;;;;;;;;;;13.05;nan;102275.69;5047501;28;19964;-81
2023/04/30 05:30:23;;;;;;;;;;;;;;;13.17;nan;102279.25;5047449;28;19975;-82
2023/04/30 05:32:50;;;;;;;;;;;;;;;13.24;nan;102278.16;5047220;28;19917;-82
2023/04/30 05:35:16;;;;;;;;;;;;;;;13.33;nan;102284.03;5048646;28;19959;-81
2023/04/30 05:37:41;;;;;;;;;;;;;;;13.43;nan;102284.28;5043555;28;19916;-81
2023/04/30 05:40:07;;;;;;;;;;;;;;;13.51;nan;102288.53;5049493;28;19921;-82
2023/04/30 05:42:33;;;;;;;;;;;;;;;13.59;nan;102294.41;5049836;28;19971;-81
2023/04/30 05:44:58;;;;;;;;;;;;;;;13.61;nan;102295.00;5049325;28;20792;-82
2023/04/30 05:47:23;;;;;;;;;;;;;;;13.65;nan;102302.63;5048741;28;19921;-81
2023/04/30 05:49:49;;;;;;;;;;;;;;;13.68;nan;102296.78;5047513;28;20543;-81
2023/04/30 05:52:16;;;;;;;;;;;;;;;13.65;nan;102300.78;5045370;28;19923;-81
2023/04/30 05:54:41;;;;;;;;;;;;;;;13.75;nan;102303.69;5048302;28;19923;-81
2023/04/30 05:57:07;;;;;;;;;;;;;;;13.83;nan;102305.25;5043955;28;20008;-81
2023/04/30 05:59:32;;;;;;;;;;;;;;;13.93;nan;102310.88;5046957;28;19971;-81
2023/04/30 06:01:57;;;;;;;;;;;;;;;14.04;nan;102314.66;5046263;28;19917;-81
2023/04/30 06:04:23;;;;;;;;;;;;;;;14.11;nan;102313.47;5046069;28;19964;-81
2023/04/30 06:06:48;;;;;;;;;;;;;;;14.25;nan;102315.94;5046578;28;19991;-81
2023/04/30 06:09:13;;;;;;;;;;;;;;;14.34;nan;102319.91;5047013;28;19924;-81
2023/04/30 06:11:39;;;;;;;;;;;;;;;14.47;nan;102319.72;5046974;28;19956;-81
2023/04/30 06:14:04;;;;;;;;;;;;;;;14.61;nan;102320.28;5047796;28;19917;-81
2023/04/30 06:16:30;;;;;;;;;;;;;;;14.72;nan;102325.69;5046507;28;19916;-81
2023/04/30 06:18:55;;;;;;;;;;;;;;;14.81;nan;102323.44;5047957;28;19925;-81
2023/04/30 06:21:24;;;;;;;;;;;;;;;14.91;nan;102331.75;5043528;28;20454;-81
2023/04/30 06:23:50;;;;;;;;;;;;;;;15.03;nan;102334.41;5050443;28;20439;-81
2023/04/30 06:26:16;;;;;;;;;;;;;;;15.09;nan;102333.47;5045070;28;19924;-81
2023/04/30 06:28:41;;;;;;;;;;;;;;;15.19;nan;102333.66;5042363;28;20279;-82
2023/04/30 06:31:06;;;;;;;;;;;;;;;15.23;nan;102334.81;5028687;28;19917;-82
2023/04/30 06:33:31;;;;;;;;;;;;;;;15.33;nan;102332.31;5045674;28;20290;-82
2023/04/30 06:35:57;;;;;;;;;;;;;;;15.37;nan;102333.47;5050654;28;19928;-82
2023/04/30 06:38:22;;;;;;;;;;;;;;;15.45;nan;102334.97;5048874;28;19924;-82
2023/04/30 06:40:48;;;;;;;;;;;;;;;15.53;nan;102333.75;5048741;28;19931;-81
2023/04/30 06:43:13;;;;;;;;;;;;;;;15.59;nan;102330.91;5046099;28;19917;-84
2023/04/30 06:45:39;;;;;;;;;;;;;;;15.69;nan;102341.09;5047886;28;20301;-81
2023/04/30 06:48:04;;;;;;;;;;;;;;;15.86;nan;102346.53;5044601;28;20436;-81
2023/04/30 06:50:29;;;;;;;;;;;;;;;16.07;nan;102342.28;5042573;28;20187;-81
2023/04/30 06:52:55;;;;;;;;;;;;;;;16.25;nan;102347.44;5039063;28;22399;-81
2023/04/30 06:55:20;;;;;;;;;;;;;;;16.39;nan;102351.44;5042883;28;19924;-81
2023/04/30 06:57:46;;;;;;;;;;;;;;;16.44;nan;102343.38;5039770;28;19982;-81
2023/04/30 07:00:15;;;;;;;;;;;;;;;16.57;nan;102347.63;5042490;28;19924;-81
2023/04/30 07:02:41;;;;;;;;;;;;;;;16.63;nan;102347.44;5037928;28;20573;-81
2023/04/30 07:05:06;;;;;;;;;;;;;;;16.71;nan;102345.44;5038686;28;20016;-81
2023/04/30 07:07:33;;;;;;;;;;;;;;;16.76;nan;102349.00;5043509;28;19927;-81
2023/04/30 07:09:59;;;;;;;;;;;;;;;16.60;nan;102358.78;5042899;28;19925;-81
2023/04/30 07:12:24;;;;;;;;;;;;;;;16.58;nan;102350.09;5041397;28;19917;-81
2023/04/30 07:14:49;;;;;;;;;;;;;;;16.61;nan;102346.88;5043968;28;20794;-81
2023/04/30 07:17:15;;;;;;;;;;;;;;;16.61;nan;102349.59;5042375;28;20637;-81
2023/04/30 07:19:41;;;;;;;;;;;;;;;16.61;nan;102346.06;5047139;28;20516;-81
2023/04/30 07:22:06;;;;;;;;;;;;;;;16.61;nan;102355.00;5048865;28;20298;-81
2023/04/30 07:24:34;;;;;;;;;;;;;;;16.52;nan;102356.50;5044707;28;20127;-81
2023/04/30 07:27:02;;;;;;;;;;;;;;;16.45;nan;102365.84;5046250;28;20008;-81
2023/04/30 07:29:28;;;;;;;;;;;;;;;16.59;nan;102346.31;5039354;28;19959;-81
2023/04/30 07:31:54;;;;;;;;;;;;;;;16.78;nan;102349.56;5042742;28;20398;-81
2023/04/30 07:34:19;;;;;;;;;;;;;;;16.97;nan;102355.50;5044004;28;19916;-81
2023/04/30 07:36:44;;;;;;;;;;;;;;;17.19;nan;102361.72;5042774;28;19928;-81
2023/04/30 07:39:10;;;;;;;;;;;;;;;17.37;nan;102357.03;5045057;28;19921;-81
2023/04/30 07:41:35;;;;;;;;;;;;;;;17.53;nan;102366.97;5047600;28;19986;-81
2023/04/30 07:44:01;;;;;;;;;;;;;;;17.63;nan;102372.50;5048367;28;19991;-81
2023/04/30 07:46:26;;;;;;;;;;;;;;;17.78;nan;102375.41;5042361;28;19924;-81
2023/04/30 07:48:52;;;;;;;;;;;;;;;17.91;nan;102373.34;5046311;28;20003;-81
2023/04/30 07:51:17;;;;;;;;;;;;;;;17.93;nan;102371.19;5041046;28;19924;-81
2023/04/30 07:53:44;;;;;;;;;;;;;;;18.04;nan;102368.31;5044113;28;19924;-81
2023/04/30 07:56:09;;;;;;;;;;;;;;;18.24;nan;102372.25;5024390;28;19925;-82
2023/04/30 07:58:34;;;;;;;;;;;;;;;18.34;nan;102378.59;5041948;28;20271;-81
2023/04/30 08:01:00;;;;;;;;;;;;;;;18.45;nan;102382.16;5048819;28;19978;-81
2023/04/30 08:03:25;;;;;;;;;;;;;;;18.55;nan;102386.84;5045154;28;20293;-81
2023/04/30 08:05:51;;;;;;;;;;;;;;;18.53;nan;102381.69;5048786;28;19970;-81
2023/04/30 08:08:17;;;;;;;;;;;;;;;18.48;nan;102388.97;5046619;28;19921;-81
2023/04/30 08:10:42;;;;;;;;;;;;;;;18.42;nan;102394.38;5044357;28;19925;-81
2023/04/30 08:13:07;;;;;;;;;;;;;;;18.58;nan;102391.75;5049364;28;20476;-81
2023/04/30 08:15:33;;;;;;;;;;;;;;;18.78;nan;102391.91;5045649;28;19928;-81
2023/04/30 08:17:58;;;;;;;;;;;;;;;18.94;nan;102388.19;5048406;28;19936;-81
2023/04/30 08:20:23;;;;;;;;;;;;;;;18.99;nan;102387.41;5043724;28;19921;-81
2023/04/30 08:22:49;;;;;;;;;;;;;;;18.91;nan;102394.16;5049578;28;19917;-81
2023/04/30 08:25:15;;;;;;;;;;;;;;;18.89;nan;102393.59;5050848;28;20011;-81
2023/04/30 08:27:40;;;;;;;;;;;;;;;18.90;nan;102397.13;5048723;28;19999;-81
2023/04/30 08:30:06;;;;;;;;;;;;;;;18.92;nan;102398.50;5035484;28;19920;-81
2023/04/30 08:32:35;;;;;;;;;;;;;;;19.07;nan;102402.38;5054282;28;19917;-81
2023/04/30 08:35:01;;;;;;;;;;;;;;;19.23;nan;102393.22;5047930;28;19920;-81
2023/04/30 08:37:26;;;;;;;;;;;;;;;19.36;nan;102395.41;5054592;28;19999;-81
2023/04/30 08:39:51;;;;;;;;;;;;;;;19.45;nan;102401.97;5054028;28;19917;-81
2023/04/30 08:42:18;;;;;;;;;;;;;;;19.58;nan;102401.50;5051312;28;20025;-81
2023/04/30 08:44:45;;;;;;;;;;;;;;;19.60;nan;102412.94;5052338;28;20510;-81
2023/04/30 08:47:12;;;;;;;;;;;;;;;19.66;nan;102394.72;5047441;28;19920;-81
2023/04/30 08:49:37;;;;;;;;;;;;;;;19.80;nan;102400.47;5047609;28;19917;-81
2023/04/30 08:52:03;;;;;;;;;;;;;;;19.98;nan;102399.94;5053984;28;20420;-81
2023/04/30 08:54:30;;;;;;;;;;;;;;;20.07;nan;102401.00;5050382;28;19917;-81
2023/04/30 08:56:56;;;;;;;;;;;;;;;20.07;nan;102409.16;5048386;28;19960;-81
2023/04/30 08:59:21;;;;;;;;;;;;;;;20.10;nan;102405.91;5050867;28;20374;-81
2023/04/30 09:01:46;;;;;;;;;;;;;;;20.19;nan;102408.91;5049988;28;19916;-82
2023/04/30 09:04:12;;;;;;;;;;;;;;;20.26;nan;102405.91;5052100;28;20387;-81
2023/04/30 09:06:37;;;;;;;;;;;;;;;20.21;nan;102402.09;5048869;28;19944;-81
2023/04/30 09:09:10;;;;;;;;;;;;;;;20.29;nan;102405.34;5049803;28;19916;-81
2023/04/30 09:11:35;;;;;;;;;;;;;;;20.42;nan;102402.13;5045833;28;19955;-81
2023/04/30 09:14:01;;;;;;;;;;;;;;;20.63;nan;102402.91;5046930;28;19939;-81
2023/04/30 09:16:29;;;;;;;;;;;;;;;20.69;nan;102405.34;5047493;28;19924;-81
2023/04/30 09:18:55;;;;;;;;;;;;;;;20.62;nan;102407.53;5048731;28;19924;-81
2023/04/30 09:21:31;;;;;;;;;;;;;;;20.54;nan;102407.28;5052298;28;19917;-81
2023/04/30 09:23:57;;;;;;;;;;;;;;;20.47;nan;102410.31;5049583;28;19920;-81
2023/04/30 09:26:33;;;;;;;;;;;;;;;20.54;nan;102413.53;5049954;28;19927;-81
2023/04/30 09:28:59;;;;;;;;;;;;;;;20.65;nan;102411.63;5050894;28;19917;-81
2023/04/30 09:31:25;;;;;;;;;;;;;;;20.64;nan;102409.97;5049893;28;19928;-81
2023/04/30 09:33:51;;;;;;;;;;;;;;;20.76;nan;102411.31;5049485;28;20015;-81
2023/04/30 09:36:16;;;;;;;;;;;;;;;20.75;nan;102411.59;5046051;28;19975;-81
2023/04/30 09:38:42;;;;;;;;;;;;;;;20.86;nan;102423.28;5047745;28;20155;-81
2023/04/30 09:41:19;;;;;;;;;;;;;;;20.91;nan;102415.09;5048200;28;19960;-81
2023/04/30 09:43:45;;;;;;;;;;;;;;;20.99;nan;102411.78;5045078;28;19928;-82
2023/04/30 09:46:11;;;;;;;;;;;;;;;21.08;nan;102410.13;5048050;28;20390;-81
2023/04/30 09:48:40;;;;;;;;;;;;;;;21.22;nan;102410.34;5048428;28;19956;-82
2023/04/30 09:51:05;;;;;;;;;;;;;;;21.27;nan;102405.72;5047188;28;19928;-81
2023/04/30 09:53:32;;;;;;;;;;;;;;;21.25;nan;102407.91;5032078;28;19925;-82
2023/04/30 09:56:01;;;;;;;;;;;;;;;21.27;nan;102405.72;5046390;28;19925;-82
2023/04/30 09:58:27;;;;;;;;;;;;;;;21.28;nan;102404.63;5047042;28;19924;-81
2023/04/30 10:00:53;;;;;;;;;;;;;;;21.27;nan;102396.72;5048742;28;19921;-81
2023/04/30 10:03:20;;;;;;;;;;;;;;;21.34;nan;102403.50;5051582;28;19951;-81
2023/04/30 10:05:47;;;;;;;;;;;;;;;21.40;nan;102402.38;5050609;28;19916;-81
2023/04/30 10:08:15;;;;;;;;;;;;;;;21.52;nan;102401.22;5045535;28;19921;-81
2023/04/30 10:10:43;;;;;;;;;;;;;;;21.68;nan;102397.31;5048326;28;19921;-81
2023/04/30 10:13:10;;;;;;;;;;;;;;;21.70;nan;102395.09;5043223;28;19921;-81
2023/04/30 10:15:39;;;;;;;;;;;;;;;21.58;nan;102395.47;5049291;28;20354;-81
2023/04/30 10:18:05;;;;;;;;;;;;;;;21.59;nan;102399.81;5051735;28;19921;-81
2023/04/30 10:20:34;;;;;;;;;;;;;;;21.74;nan;102393.47;5049729;28;19939;-81
2023/04/30 10:23:00;;;;;;;;;;;;;;;21.77;nan;102389.34;5046393;28;20038;-82
2023/04/30 10:25:27;;;;;;;;;;;;;;;21.63;nan;102395.44;5044482;28;19925;-81
2023/04/30 10:27:52;;;;;;;;;;;;;;;21.73;nan;102389.09;5048484;28;19964;-81
2023/04/30 10:30:18;;;;;;;;;;;;;;;21.81;nan;102399.41;5052913;28;19932;-81
2023/04/30 10:32:47;;;;;;;;;;;;;;;21.89;nan;102398.78;5050295;28;20545;-81
2023/04/30 10:35:23;;;;;;;;;;;;;;;22.04;nan;102397.84;5049299;28;19924;-81
2023/04/30 10:37:52;;;;;;;;;;;;;;;22.13;nan;102381.72;5051239;28;19916;-81
2023/04/30 10:40:18;;;;;;;;;;;;;;;22.24;nan;102384.06;5044652;28;19932;-81
2023/04/30 10:42:49;;;;;;;;;;;;;;;22.20;nan;102383.00;5045690;28;19917;-81
2023/04/30 10:45:15;;;;;;;;;;;;;;;22.24;nan;102380.50;5044483;28;19921;-82
2023/04/30 10:47:47;;;;;;;;;;;;;;;22.46;nan;102367.22;5045531;28;19979;-82
2023/04/30 10:50:12;;;;;;;;;;;;;;;22.79;nan;102375.56;5045344;28;21102;-82
2023/04/30 10:52:38;;;;;;;;;;;;;;;22.99;nan;102371.84;5048412;28;19947;-82
2023/04/30 10:55:07;;;;;;;;;;;;;;;23.16;nan;102380.34;5047145;28;20007;-82
2023/04/30 10:57:42;;;;;;;;;;;;;;;23.31;nan;102371.94;5046147;28;19921;-81
2023/04/30 11:00:11;;;;;;;;;;;;;;;23.46;nan;102374.47;5047666;28;19917;-82
2023/04/30 11:02:42;;;;;;;;;;;;;;;23.52;nan;102372.47;5034155;28;19970;-83
2023/04/30 11:05:12;;;;;;;;;;;;;;;23.58;nan;102374.06;5048984;28;20016;-82
2023/04/30 11:07:47;;;;;;;;;;;;;;;23.60;nan;102374.56;5036239;28;19921;-82
2023/04/30 11:10:12;;;;;;;;;;;;;;;23.73;nan;102362.88;5046853;28;20347;-82
2023/04/30 11:12:40;;;;;;;;;;;;;;;23.94;nan;102365.28;5052569;28;19932;-83
2023/04/30 11:15:11;;;;;;;;;;;;;;;24.18;nan;102365.94;5044144;28;19952;-82
2023/04/30 11:17:37;;;;;;;;;;;;;;;24.16;nan;102368.19;5047342;28;19921;-82
2023/04/30 11:20:03;;;;;;;;;;;;;;;24.09;nan;102373.25;5048991;28;20500;-82
2023/04/30 11:22:35;;;;;;;;;;;;;;;23.90;nan;102369.72;5052228;28;20413;-82
2023/04/30 11:25:08;;;;;;;;;;;;;;;23.90;nan;102369.72;5048375;28;19947;-82
2023/04/30 11:27:34;;;;;;;;;;;;;;;24.11;nan;102371.81;5032691;28;21110;-82
2023/04/30 11:30:01;;;;;;;;;;;;;;;24.41;nan;102365.00;5048150;28;19925;-82
2023/04/30 11:32:36;;;;;;;;;;;;;;;24.59;nan;102371.50;5048434;28;19990;-83
2023/04/30 11:35:03;;;;;;;;;;;;;;;24.77;nan;102372.53;5048901;28;20477;-82
2023/04/30 11:37:31;;;;;;;;;;;;;;;24.80;nan;102371.94;5048269;28;19928;-82
2023/04/30 11:39:59;;;;;;;;;;;;;;;24.83;nan;102371.31;5042136;28;19970;-82
2023/04/30 11:42:24;;;;;;;;;;;;;;;24.82;nan;102369.69;5045956;28;19924;-82
2023/04/30 11:44:49;;;;;;;;;;;;;;;24.78;nan;102371.44;5032331;28;19921;-82
2023/04/30 11:47:15;;;;;;;;;;;;;;;24.84;nan;102361.16;5052076;28;19935;-82
2023/04/30 11:49:41;;;;;;;;;;;;;;;24.83;nan;102368.59;5044737;28;20298;-82
2023/04/30 11:52:08;;;;;;;;;;;;;;;24.88;nan;102363.00;5047791;28;19925;-82
2023/04/30 11:54:37;;;;;;;;;;;;;;;25.00;nan;102365.25;5046921;28;19921;-82
2023/04/30 11:57:03;;;;;;;;;;;;;;;25.11;nan;102365.81;5050940;28;19927;-82
2023/04/30 11:59:39;;;;;;;;;;;;;;;25.29;nan;102359.38;5047781;28;19924;-82
2023/04/30 12:02:05;;;;;;;;;;;;;;;25.51;nan;102359.44;5048404;28;19995;-82
2023/04/30 12:04:31;;;;;;;;;;;;;;;25.44;nan;102350.81;5050168;28;19939;-83
2023/04/30 12:06:57;;;;;;;;;;;;;;;25.29;nan;102359.38;5048123;28;19929;-82
2023/04/30 12:09:22;;;;;;;;;;;;;;;25.17;nan;102359.13;5050382;28;20030;-83
2023/04/30 12:11:48;;;;;;;;;;;;;;;25.08;nan;102360.97;5048223;28;19917;-82
2023/04/30 12:14:14;;;;;;;;;;;;;;;25.17;nan;102350.91;5052262;28;20107;-82
2023/04/30 12:16:50;;;;;;;;;;;;;;;25.15;nan;102362.19;5049167;28;19920;-82
2023/04/30 12:19:19;;;;;;;;;;;;;;;25.10;nan;102356.78;5050366;28;19932;-83
2023/04/30 12:21:46;;;;;;;;;;;;;;;25.06;nan;102355.78;5032925;28;20369;-82
2023/04/30 12:24:15;;;;;;;;;;;;;;;25.02;nan;102360.28;5036846;28;19917;-83
2023/04/30 12:26:41;;;;;;;;;;;;;;;25.07;nan;102362.09;5023904;28;19924;-82
2023/04/30 12:29:10;;;;;;;;;;;;;;;25.15;nan;102362.19;5045602;28;20406;-82
2023/04/30 12:31:36;;;;;;;;;;;;;;;25.20;nan;102359.31;5041817;28;19927;-82
2023/04/30 12:34:05;;;;;;;;;;;;;;;25.44;nan;102361.78;5042382;28;19916;-83
2023/04/30 12:36:31;;;;;;;;;;;;;;;25.65;nan;102359.38;5042955;28;20687;-83
2023/04/30 12:39:15;;;;;;;;;;;;;;;25.65;nan;102353.88;5041535;28;19978;-83
2023/04/30 12:41:47;;;;;;;;;;;;;;;25.79;nan;102354.66;5043530;28;19917;-82
2023/04/30 12:44:23;;;;;;;;;;;;;;;25.99;nan;102341.53;5035506;28;19917;-83
2023/04/30 12:46:50;;;;;;;;;;;;;;;26.18;nan;102353.13;5040242;28;19921;-83
2023/04/30 12:49:25;;;;;;;;;;;;;;;26.38;nan;102338.06;5021063;28;19925;-83
2023/04/30 12:51:51;;;;;;;;;;;;;;;26.65;nan;102346.09;5036460;28;19949;-83
2023/04/30 12:54:31;;;;;;;;;;;;;;;26.77;nan;102343.56;5044277;28;19948;-82